Arvin, California
Current Conditions -  °F | °C
As of 1:54 PM on Tuesday 25 Nov 2014 (Local Time) from KBFL Reporting Station
Haze Haze  
Wind Chill: 65°   Ceiling: Unl
Heat Index: 65°   Visibility: 6mi
Dew Point: 42°   Wind: 3mph
Humidity: 43%   Direction: NA
Pressure: 30.38"   Gusts: NA
Location:  35.21°N, 118.82°W
Report Text: KBFL 252154Z VRB03KT 6SM HZ CLR 18/06 A3038 RMK AO2 SLP284 T01830056
Loading
Personal Weather Stations






























Interactive Weather Map New forecast layout! Learn more

10-Day Weather Forecast

Advertisements
Track Severe Weather on mobile